createdAt,value
2022-12-27T00:00:14.393Z,2.27
2022-12-27T00:02:42.366Z,3.40
2022-12-27T00:05:11.540Z,3.53
2022-12-27T00:07:38.983Z,4.00
2022-12-27T00:10:07.844Z,4.20
2022-12-27T00:12:35.613Z,4.67
2022-12-27T00:15:04.181Z,5.50
2022-12-27T00:17:31.674Z,6.17
2022-12-27T00:19:59.276Z,7.00
2022-12-27T00:22:26.764Z,3.67
2022-12-27T00:24:54.623Z,2.53
2022-12-27T00:27:22.117Z,6.53
2022-12-27T00:29:49.701Z,3.90
2022-12-27T00:32:17.648Z,4.93
2022-12-27T00:34:45.081Z,6.27
2022-12-27T00:37:12.691Z,10.77
2022-12-27T00:39:40.189Z,2.80
2022-12-27T00:42:07.738Z,14.47
2022-12-27T00:44:35.528Z,11.13
2022-12-27T00:47:02.982Z,7.10
2022-12-27T00:49:30.598Z,9.03
2022-12-27T00:51:58.067Z,3.90
2022-12-27T00:54:25.562Z,3.77
2022-12-27T00:56:53.011Z,8.23
2022-12-27T00:59:20.621Z,3.97
2022-12-27T01:01:48.541Z,7.83
2022-12-27T01:04:16.246Z,5.97
2022-12-27T01:06:43.858Z,8.67
2022-12-27T01:09:11.549Z,12.40
2022-12-27T01:11:41.837Z,11.57
2022-12-27T01:14:10.502Z,12.40
2022-12-27T01:16:38.780Z,5.30
2022-12-27T01:19:06.532Z,6.33
2022-12-27T01:21:34.486Z,3.77
2022-12-27T01:24:02.020Z,2.80
2022-12-27T01:26:29.517Z,5.73
2022-12-27T01:28:57.321Z,3.43
2022-12-27T01:31:28.376Z,5.47
2022-12-27T01:33:58.461Z,4.37
2022-12-27T01:36:27.982Z,7.30
2022-12-27T01:38:59.313Z,7.90
2022-12-27T01:41:57.207Z,11.20
2022-12-27T01:44:44.165Z,3.23
2022-12-27T01:47:18.281Z,7.20
2022-12-27T01:50:08.126Z,2.17
2022-12-27T01:52:49.268Z,5.07
2022-12-27T01:55:28.941Z,4.83
2022-12-27T01:58:02.071Z,4.33
2022-12-27T02:00:29.940Z,3.27
2022-12-27T02:02:57.837Z,2.83
2022-12-27T02:05:26.260Z,4.93
2022-12-27T02:08:06.555Z,4.37
2022-12-27T02:10:35.037Z,5.67
2022-12-27T02:13:05.039Z,5.37
2022-12-27T02:15:33.014Z,1.63
2022-12-27T02:18:00.827Z,5.13
2022-12-27T02:20:38.429Z,6.77
2022-12-27T02:24:03.056Z,6.50
2022-12-27T02:26:59.779Z,2.63
2022-12-27T02:29:30.386Z,7.97
2022-12-27T02:32:25.570Z,3.43
2022-12-27T02:35:17.408Z,9.47
2022-12-27T02:38:07.371Z,5.57
2022-12-27T02:40:54.543Z,4.00
2022-12-27T02:43:40.865Z,3.80
2022-12-27T02:46:45.433Z,4.77
2022-12-27T02:49:52.823Z,7.20
2022-12-27T02:53:04.192Z,3.20
2022-12-27T02:56:18.159Z,5.43
2022-12-27T02:59:07.920Z,6.27
2022-12-27T03:02:34.817Z,7.27
2022-12-27T03:05:46.871Z,7.47
2022-12-27T03:08:21.849Z,5.50
2022-12-27T03:11:14.914Z,5.03
2022-12-27T03:14:14.227Z,2.20
2022-12-27T03:16:56.467Z,3.67
2022-12-27T03:19:51.466Z,4.88
2022-12-27T03:22:40.206Z,4.13
2022-12-27T03:25:26.258Z,2.30
2022-12-27T03:28:34.066Z,3.77
2022-12-27T03:31:26.110Z,2.57
2022-12-27T03:34:04.791Z,4.60
2022-12-27T03:36:52.730Z,6.40
2022-12-27T03:39:30.941Z,6.37
2022-12-27T03:42:26.368Z,3.53
2022-12-27T03:44:54.659Z,2.37
2022-12-27T03:47:25.216Z,4.57
2022-12-27T03:50:33.112Z,3.27
2022-12-27T03:53:11.334Z,2.97
2022-12-27T03:55:39.501Z,5.73
2022-12-27T03:58:07.085Z,3.97
2022-12-27T04:00:34.701Z,2.40
2022-12-27T04:03:02.275Z,2.57
2022-12-27T04:05:29.922Z,3.63
2022-12-27T04:08:15.856Z,3.40
2022-12-27T04:11:05.250Z,3.80
2022-12-27T04:13:51.174Z,3.67
2022-12-27T04:16:37.092Z,3.30
2022-12-27T04:19:23.060Z,6.80
2022-12-27T04:22:09.279Z,5.67
2022-12-27T04:24:55.472Z,4.67
2022-12-27T04:27:41.270Z,6.53
2022-12-27T04:30:27.835Z,7.53
2022-12-27T04:33:14.011Z,6.57
2022-12-27T04:35:41.482Z,8.87
2022-12-27T04:38:08.921Z,6.97
2022-12-27T04:40:54.927Z,4.00
2022-12-27T04:43:40.826Z,3.90
2022-12-27T04:46:42.909Z,1.70
2022-12-27T04:49:49.242Z,5.30
2022-12-27T04:52:38.079Z,2.00
2022-12-27T04:55:18.029Z,3.83
2022-12-27T04:57:45.931Z,4.40
2022-12-27T05:00:37.364Z,1.90
2022-12-27T05:03:09.214Z,3.20
2022-12-27T05:05:38.277Z,1.85
2022-12-27T05:08:25.942Z,2.43
2022-12-27T05:11:12.214Z,1.77
2022-12-27T05:13:58.156Z,2.87
2022-12-27T05:16:30.242Z,2.57
2022-12-27T05:18:58.391Z,2.10
2022-12-27T05:21:26.601Z,1.83
2022-12-27T05:24:12.862Z,4.20
2022-12-27T05:26:41.604Z,6.10
2022-12-27T05:29:09.206Z,4.03
2022-12-27T05:31:36.736Z,6.13
2022-12-27T05:34:06.170Z,5.80
2022-12-27T05:36:34.107Z,3.47
2022-12-27T05:39:01.672Z,3.80
2022-12-27T05:41:29.122Z,6.20
2022-12-27T05:44:02.050Z,4.53
2022-12-27T05:46:34.934Z,4.33
2022-12-27T05:49:02.930Z,5.93
2022-12-27T05:51:30.849Z,3.30
2022-12-27T05:53:58.566Z,2.03
2022-12-27T05:56:26.155Z,5.73
2022-12-27T05:58:54.329Z,3.40
2022-12-27T06:01:21.904Z,4.03
2022-12-27T06:03:49.380Z,2.97
2022-12-27T06:06:16.917Z,2.77
2022-12-27T06:08:44.534Z,4.90
2022-12-27T06:11:18.087Z,3.03
2022-12-27T06:13:53.122Z,5.43
2022-12-27T06:16:22.129Z,7.17
2022-12-27T06:18:50.243Z,3.27
2022-12-27T06:21:21.088Z,4.13
2022-12-27T06:23:49.458Z,9.00
2022-12-27T06:26:28.915Z,4.43
2022-12-27T06:28:58.813Z,4.07
2022-12-27T06:31:27.948Z,7.30
2022-12-27T06:33:56.500Z,4.20
2022-12-27T06:36:30.485Z,3.50
2022-12-27T06:38:59.009Z,3.03
2022-12-27T06:41:26.646Z,2.80
2022-12-27T06:43:56.318Z,6.10
2022-12-27T06:46:27.016Z,4.37
2022-12-27T06:48:54.634Z,7.13
2022-12-27T06:51:22.342Z,2.80
2022-12-27T06:53:50.186Z,5.43
2022-12-27T06:56:20.797Z,8.57
2022-12-27T06:58:49.711Z,4.00
2022-12-27T07:01:26.545Z,4.33
2022-12-27T07:03:56.798Z,3.20
2022-12-27T07:06:25.765Z,4.47
2022-12-27T07:08:54.646Z,5.63
2022-12-27T07:11:22.825Z,7.93
2022-12-27T07:13:53.233Z,3.50
2022-12-27T07:16:23.661Z,4.30
2022-12-27T07:18:51.564Z,5.53
2022-12-27T07:21:21.763Z,3.50
2022-12-27T07:23:49.892Z,5.90
2022-12-27T07:26:20.421Z,5.03
2022-12-27T07:28:48.517Z,5.43
2022-12-27T07:31:18.976Z,5.07
2022-12-27T07:33:46.796Z,8.20
2022-12-27T07:36:17.543Z,3.00
2022-12-27T07:38:45.552Z,3.40
2022-12-27T07:41:14.163Z,5.03
2022-12-27T07:43:43.924Z,1.90
2022-12-27T07:46:17.105Z,8.93
2022-12-27T07:48:45.549Z,5.17
2022-12-27T07:51:15.285Z,4.43
2022-12-27T07:53:43.674Z,10.03
2022-12-27T07:56:13.899Z,5.00
2022-12-27T07:58:44.300Z,6.07
2022-12-27T08:01:13.643Z,8.13
2022-12-27T08:03:42.270Z,5.13
2022-12-27T08:06:22.212Z,5.83
2022-12-27T08:08:50.847Z,2.47
2022-12-27T08:11:18.396Z,6.17
2022-12-27T08:13:46.030Z,2.40
2022-12-27T08:16:22.443Z,5.03
2022-12-27T08:18:50.047Z,4.00
2022-12-27T08:21:17.754Z,3.33
2022-12-27T08:23:45.615Z,3.40
2022-12-27T08:26:13.320Z,9.30
2022-12-27T08:28:40.967Z,3.70
2022-12-27T08:31:10.358Z,14.47
2022-12-27T08:33:38.028Z,15.73
2022-12-27T08:36:22.296Z,2.50
2022-12-27T08:38:55.976Z,6.33
2022-12-27T08:41:23.799Z,6.20
2022-12-27T08:43:51.401Z,3.53
2022-12-27T08:46:19.867Z,2.00
2022-12-27T08:48:49.051Z,4.20
2022-12-27T08:51:24.823Z,4.67
2022-12-27T08:53:57.823Z,3.87
2022-12-27T08:56:25.804Z,5.43
2022-12-27T08:58:53.346Z,4.00
2022-12-27T09:01:21.837Z,4.83
2022-12-27T09:03:49.419Z,8.30
2022-12-27T09:06:22.379Z,5.17
2022-12-27T09:08:51.275Z,4.80
2022-12-27T09:11:24.618Z,4.00
2022-12-27T09:13:52.441Z,7.40
2022-12-27T09:16:22.637Z,12.90
2022-12-27T09:18:52.168Z,4.53
2022-12-27T09:21:21.025Z,4.63
2022-12-27T09:23:49.680Z,3.23
2022-12-27T09:26:22.179Z,5.93
2022-12-27T09:28:50.999Z,5.63
2022-12-27T09:31:20.323Z,6.93
2022-12-27T09:33:48.176Z,6.57
2022-12-27T09:36:21.853Z,5.17
2022-12-27T09:38:52.884Z,6.07
2022-12-27T09:44:38.359Z,2.37
2022-12-27T09:47:27.453Z,5.53
2022-12-27T09:50:01.316Z,7.03
2022-12-27T09:52:54.893Z,4.83
2022-12-27T09:55:40.450Z,6.23
2022-12-27T09:58:34.273Z,4.77
2022-12-27T10:01:02.926Z,7.33
2022-12-27T10:03:31.376Z,4.37
2022-12-27T10:06:23.379Z,3.23
2022-12-27T10:09:01.513Z,4.33
2022-12-27T10:12:03.881Z,5.50
2022-12-27T10:14:37.019Z,7.03
2022-12-27T10:17:22.328Z,2.97
2022-12-27T10:19:59.073Z,4.10
2022-12-27T10:22:46.312Z,4.90
2022-12-27T10:25:18.523Z,4.77
2022-12-27T10:27:48.491Z,3.30
2022-12-27T10:30:20.162Z,2.13
2022-12-27T10:32:48.690Z,4.40
2022-12-27T10:35:21.216Z,6.93
2022-12-27T10:37:49.761Z,5.22
2022-12-27T10:40:27.631Z,8.53
2022-12-27T10:43:05.967Z,5.37
2022-12-27T10:45:42.573Z,8.40
2022-12-27T10:48:14.921Z,8.37
2022-12-27T10:50:48.787Z,5.57
2022-12-27T10:53:34.302Z,5.23
2022-12-27T10:56:09.370Z,2.40
2022-12-27T10:58:40.143Z,3.93
2022-12-27T11:01:19.962Z,7.17
2022-12-27T11:03:47.601Z,3.53
2022-12-27T11:06:24.982Z,2.30
2022-12-27T11:08:54.431Z,5.30
2022-12-27T11:11:25.263Z,9.77
2022-12-27T11:13:53.409Z,4.38
2022-12-27T11:16:36.219Z,9.93
2022-12-27T11:21:32.497Z,4.30
2022-12-27T11:24:02.631Z,4.97
2022-12-27T11:26:53.768Z,8.13
2022-12-27T11:29:25.345Z,5.20
2022-12-27T11:31:54.386Z,9.73
2022-12-27T11:34:33.290Z,5.93
2022-12-27T11:37:14.564Z,7.82
2022-12-27T11:39:42.268Z,8.52
2022-12-27T11:42:38.661Z,7.72
2022-12-27T11:45:18.499Z,5.78
2022-12-27T11:48:22.914Z,3.60
2022-12-27T11:51:18.099Z,5.60
2022-12-27T11:54:19.054Z,7.47
2022-12-27T11:57:00.677Z,3.55
2022-12-27T12:00:04.981Z,4.53
2022-12-27T12:03:02.136Z,6.82
2022-12-27T12:05:30.068Z,5.68
2022-12-27T12:08:27.467Z,3.08
2022-12-27T12:11:13.757Z,8.88
2022-12-27T12:14:22.463Z,5.80
2022-12-27T12:17:37.467Z,3.83
2022-12-27T12:20:35.358Z,5.53
2022-12-27T12:23:19.461Z,5.25
2022-12-27T12:26:01.271Z,8.27
2022-12-27T12:28:58.201Z,8.60
2022-12-27T12:31:44.648Z,5.47
2022-12-27T12:34:17.975Z,9.05
2022-12-27T12:36:55.754Z,6.78
2022-12-27T12:39:37.972Z,4.22
2022-12-27T12:42:11.245Z,2.22
2022-12-27T12:44:57.681Z,6.38
2022-12-27T12:47:25.243Z,7.57
2022-12-27T12:50:01.483Z,9.65
2022-12-27T12:52:40.604Z,5.53
2022-12-27T12:55:34.915Z,8.70
2022-12-27T12:58:37.097Z,11.00
2022-12-27T13:01:22.625Z,14.18
2022-12-27T13:04:08.450Z,8.20
2022-12-27T13:07:07.154Z,3.92
2022-12-27T13:10:05.279Z,4.72
2022-12-27T13:12:41.552Z,5.70
2022-12-27T13:15:43.798Z,8.23
2022-12-27T13:18:31.621Z,3.67
2022-12-27T13:21:52.618Z,2.47
2022-12-27T13:25:08.595Z,1.67
2022-12-27T13:27:54.195Z,7.40
2022-12-27T13:30:23.092Z,3.22
2022-12-27T13:33:04.022Z,3.35
2022-12-27T13:35:51.771Z,5.38
2022-12-27T13:38:33.351Z,4.22
2022-12-27T13:41:31.089Z,4.97
2022-12-27T13:44:28.604Z,16.33
2022-12-27T13:47:23.807Z,8.70
2022-12-27T13:50:22.222Z,18.42
2022-12-27T13:53:00.172Z,9.23
2022-12-27T13:55:46.717Z,4.60
2022-12-27T13:58:37.525Z,6.18
2022-12-27T14:01:24.772Z,6.75
2022-12-27T14:04:43.942Z,6.47
2022-12-27T14:07:17.438Z,5.00
2022-12-27T14:10:16.546Z,8.23
2022-12-27T14:12:58.020Z,8.20
2022-12-27T14:15:56.376Z,7.80
2022-12-27T14:18:36.079Z,5.85
2022-12-27T14:21:05.023Z,5.72
2022-12-27T14:23:53.980Z,9.05
2022-12-27T14:26:50.749Z,3.60
2022-12-27T14:29:56.858Z,5.72
2022-12-27T14:32:48.391Z,3.40
2022-12-27T14:35:37.595Z,5.28
2022-12-27T14:38:40.098Z,5.33
2022-12-27T14:41:28.771Z,4.30
2022-12-27T14:44:28.652Z,3.47
2022-12-27T14:47:54.661Z,5.77
2022-12-27T14:50:59.607Z,5.00
2022-12-27T14:53:49.551Z,4.50
2022-12-27T14:56:52.032Z,6.57
2022-12-27T15:00:10.478Z,8.93
2022-12-27T15:03:01.010Z,4.70
2022-12-27T15:05:31.840Z,5.77
2022-12-27T15:08:18.126Z,9.73
2022-12-27T15:11:15.596Z,7.10
2022-12-27T15:14:17.992Z,12.83
2022-12-27T15:17:03.550Z,5.97
2022-12-27T15:19:53.171Z,4.57
2022-12-27T15:22:29.379Z,8.67
2022-12-27T15:25:38.359Z,7.20
2022-12-27T15:28:21.126Z,7.33
2022-12-27T15:31:27.866Z,6.40
2022-12-27T15:34:25.700Z,4.93
2022-12-27T15:36:53.322Z,7.30
2022-12-27T15:39:36.008Z,11.13
2022-12-27T15:42:31.594Z,5.65
2022-12-27T15:45:40.557Z,5.37
2022-12-27T15:48:26.109Z,6.77
2022-12-27T15:51:00.515Z,5.20
2022-12-27T15:53:42.857Z,6.47
2022-12-27T15:56:44.422Z,5.85
2022-12-27T15:59:46.038Z,7.07
2022-12-27T16:02:51.528Z,5.33
2022-12-27T16:05:22.222Z,7.53
2022-12-27T16:07:58.806Z,6.10
2022-12-27T16:10:36.101Z,7.20
2022-12-27T16:13:41.373Z,6.63
2022-12-27T16:16:32.687Z,7.83
2022-12-27T16:19:24.146Z,7.70
2022-12-27T16:21:52.295Z,8.77
2022-12-27T16:24:24.307Z,9.43
2022-12-27T16:27:01.209Z,5.70
2022-12-27T16:29:32.794Z,8.77
2022-12-27T16:32:23.664Z,7.20
2022-12-27T16:34:55.598Z,12.17
2022-12-27T16:37:30.701Z,8.57
2022-12-27T16:40:19.537Z,8.60
2022-12-27T16:43:10.021Z,12.17
2022-12-27T16:45:40.534Z,14.13
2022-12-27T16:48:38.994Z,20.40
2022-12-27T16:51:15.243Z,13.87
2022-12-27T16:54:33.663Z,14.30
2022-12-27T16:57:25.692Z,15.17
2022-12-27T17:00:40.955Z,9.70
2022-12-27T17:03:33.159Z,10.80
2022-12-27T17:06:31.293Z,9.30
2022-12-27T17:09:08.829Z,11.03
2022-12-27T17:11:48.383Z,9.80
2022-12-27T17:14:27.138Z,10.17
2022-12-27T17:17:23.962Z,8.70
2022-12-27T17:19:57.344Z,8.90
2022-12-27T17:22:32.324Z,8.23
2022-12-27T17:25:04.191Z,10.07
2022-12-27T17:27:56.539Z,14.10
2022-12-27T17:31:05.759Z,8.57
2022-12-27T17:33:52.075Z,12.23
2022-12-27T17:36:41.179Z,7.40
2022-12-27T17:39:27.356Z,14.20
2022-12-27T17:42:42.423Z,13.07
2022-12-27T17:45:35.613Z,8.30
2022-12-27T17:50:54.961Z,10.80
2022-12-27T17:53:42.947Z,15.80
2022-12-27T17:56:41.769Z,9.63
2022-12-27T17:59:13.134Z,8.30
2022-12-27T18:01:49.706Z,11.03
2022-12-27T18:04:34.232Z,10.57
2022-12-27T18:07:04.403Z,13.37
2022-12-27T18:09:41.203Z,10.43
2022-12-27T18:12:50.308Z,8.47
2022-12-27T18:15:28.267Z,12.33
2022-12-27T18:18:04.194Z,11.80
2022-12-27T18:20:36.707Z,12.70
2022-12-27T18:23:07.196Z,9.75
2022-12-27T18:25:59.062Z,12.83
2022-12-27T18:28:35.915Z,12.83
2022-12-27T18:31:26.989Z,12.50
2022-12-27T18:34:01.421Z,12.40
2022-12-27T18:36:45.678Z,10.83
2022-12-27T18:39:34.064Z,10.23
2022-12-27T18:42:06.182Z,12.80
2022-12-27T18:44:48.462Z,13.18
2022-12-27T18:47:27.330Z,12.43
2022-12-27T18:50:00.893Z,12.23
2022-12-27T18:52:35.031Z,11.33
2022-12-27T18:55:07.536Z,11.53
2022-12-27T18:57:37.214Z,17.42
2022-12-27T19:00:19.247Z,11.87
2022-12-27T19:02:47.040Z,12.60
2022-12-27T19:05:25.731Z,12.20
2022-12-27T19:08:14.211Z,12.43
2022-12-27T19:10:50.049Z,12.23
2022-12-27T19:13:29.297Z,12.67
2022-12-27T19:15:58.242Z,12.10
2022-12-27T19:18:38.740Z,10.70
2022-12-27T19:21:07.647Z,12.80
2022-12-27T19:23:40.022Z,12.77
2022-12-27T19:26:16.557Z,12.00
2022-12-27T19:29:06.587Z,15.60
2022-12-27T19:31:35.347Z,15.50
2022-12-27T19:34:10.103Z,13.60
2022-12-27T19:36:43.116Z,15.03
2022-12-27T19:39:29.534Z,12.20
2022-12-27T19:42:00.961Z,11.43
2022-12-27T19:44:29.858Z,11.93
2022-12-27T19:46:58.519Z,11.70
2022-12-27T19:49:43.289Z,12.87
2022-12-27T19:52:23.201Z,15.07
2022-12-27T19:54:54.623Z,14.07
2022-12-27T19:57:22.706Z,10.43
2022-12-27T19:59:51.808Z,11.17
2022-12-27T20:02:21.466Z,9.33
2022-12-27T20:04:49.125Z,10.03
2022-12-27T20:07:25.611Z,12.60
2022-12-27T20:09:53.170Z,10.70
2022-12-27T20:12:20.723Z,12.03
2022-12-27T20:14:48.420Z,10.17
2022-12-27T20:17:16.028Z,9.93
2022-12-27T20:19:43.679Z,8.17
2022-12-27T20:22:11.315Z,11.23
2022-12-27T20:24:39.790Z,10.33
2022-12-27T20:27:07.294Z,10.03
2022-12-27T20:29:35.152Z,9.77
2022-12-27T20:32:05.965Z,9.10
2022-12-27T20:34:33.592Z,5.37
2022-12-27T20:37:01.122Z,7.77
2022-12-27T20:39:28.792Z,10.77
2022-12-27T20:41:56.504Z,6.60
2022-12-27T20:44:24.109Z,9.47
2022-12-27T20:46:51.691Z,8.07
2022-12-27T20:49:19.476Z,6.93
2022-12-27T20:51:46.947Z,6.10
2022-12-27T20:54:16.291Z,12.87
2022-12-27T20:56:43.858Z,10.80
2022-12-27T20:59:11.404Z,10.23
2022-12-27T21:01:39.127Z,12.67
2022-12-27T21:04:06.672Z,16.47
2022-12-27T21:06:34.289Z,11.97
2022-12-27T21:09:01.930Z,12.53
2022-12-27T21:11:31.814Z,20.83
2022-12-27T21:14:01.207Z,9.63
2022-12-27T21:16:30.735Z,8.97
2022-12-27T21:18:59.004Z,8.57
2022-12-27T21:21:28.924Z,12.45
2022-12-27T21:23:58.304Z,7.53
2022-12-27T21:26:29.013Z,8.13
2022-12-27T21:28:58.081Z,10.73
2022-12-27T21:31:26.009Z,7.23
2022-12-27T21:33:53.634Z,9.87
2022-12-27T21:36:24.660Z,7.97
2022-12-27T21:38:53.177Z,10.07
2022-12-27T21:41:23.845Z,6.37
2022-12-27T21:43:51.958Z,8.63
2022-12-27T21:46:25.416Z,8.70
2022-12-27T21:49:04.192Z,7.40
2022-12-27T21:51:33.144Z,8.07
2022-12-27T21:54:00.883Z,8.07
2022-12-27T21:56:29.018Z,7.80
2022-12-27T21:58:58.574Z,7.40
2022-12-27T22:01:28.432Z,6.20
2022-12-27T22:03:57.883Z,6.90
2022-12-27T22:06:28.490Z,5.20
2022-12-27T22:09:00.937Z,5.97
2022-12-27T22:11:29.687Z,7.63
2022-12-27T22:13:57.227Z,4.15
2022-12-27T22:16:27.591Z,5.03
2022-12-27T22:18:56.341Z,5.67
2022-12-27T22:21:32.956Z,5.13
2022-12-27T22:24:01.961Z,5.00
2022-12-27T22:26:32.233Z,5.57
2022-12-27T22:29:00.095Z,5.50
2022-12-27T22:31:33.074Z,6.00
2022-12-27T22:34:00.797Z,27.17
2022-12-27T22:36:29.039Z,26.40
2022-12-27T22:38:58.111Z,16.53
2022-12-27T22:41:28.585Z,20.43
2022-12-27T22:44:04.991Z,18.20
2022-12-27T22:46:58.451Z,9.17
2022-12-27T22:49:21.365Z,19.87
2022-12-27T22:51:48.750Z,19.23
2022-12-27T22:54:16.220Z,12.13
2022-12-27T22:56:43.981Z,14.27
2022-12-27T22:59:13.927Z,11.73
2022-12-27T23:01:42.496Z,11.27
2022-12-27T23:04:12.977Z,13.57
2022-12-27T23:06:41.155Z,12.70
2022-12-27T23:09:09.356Z,15.87
2022-12-27T23:11:40.697Z,13.27
2022-12-27T23:14:17.660Z,17.80
2022-12-27T23:16:47.962Z,5.23
2022-12-27T23:19:19.019Z,13.20
2022-12-27T23:21:47.315Z,16.00
2022-12-27T23:24:15.070Z,9.63
2022-12-27T23:26:43.009Z,19.97
2022-12-27T23:29:15.186Z,13.43
2022-12-27T23:31:55.027Z,17.00
2022-12-27T23:34:28.718Z,12.57
2022-12-27T23:37:01.313Z,26.53
2022-12-27T23:39:29.329Z,18.52
2022-12-27T23:41:56.874Z,14.70
2022-12-27T23:44:33.631Z,15.70
2022-12-27T23:47:06.452Z,7.23
2022-12-27T23:49:34.951Z,17.27
2022-12-27T23:52:02.985Z,12.10
2022-12-27T23:54:30.693Z,12.83
2022-12-27T23:56:58.298Z,6.20
2022-12-27T23:59:45.832Z,10.93
